createdAt,value
2023-01-25T00:00:00.936Z,20.30
2023-01-25T00:02:30.783Z,21.07
2023-01-25T00:05:00.574Z,20.20
2023-01-25T00:07:30.651Z,20.75
2023-01-25T00:10:00.560Z,20.20
2023-01-25T00:12:30.380Z,19.20
2023-01-25T00:15:00.155Z,19.50
2023-01-25T00:17:29.945Z,19.80
2023-01-25T00:19:59.687Z,19.77
2023-01-25T00:22:29.838Z,20.65
2023-01-25T00:24:59.615Z,20.37
2023-01-25T00:27:29.183Z,19.67
2023-01-25T00:29:59.018Z,21.20
2023-01-25T00:32:43.950Z,20.87
2023-01-25T00:35:14.061Z,21.65
2023-01-25T00:37:46.820Z,21.20
2023-01-25T00:40:17.895Z,20.76
2023-01-25T00:42:47.677Z,22.50
2023-01-25T00:45:17.741Z,22.10
2023-01-25T00:47:47.521Z,21.50
2023-01-25T00:50:17.467Z,22.20
2023-01-25T00:52:47.241Z,21.67
2023-01-25T00:55:17.120Z,21.27
2023-01-25T00:57:46.931Z,21.90
2023-01-25T01:00:16.938Z,22.27
2023-01-25T01:02:48.106Z,22.53
2023-01-25T01:05:18.029Z,22.77
2023-01-25T01:07:50.560Z,22.70
2023-01-25T01:10:22.032Z,21.48
2023-01-25T01:12:53.026Z,22.43
2023-01-25T01:15:22.818Z,22.70
2023-01-25T01:17:52.593Z,23.63
2023-01-25T01:20:22.143Z,22.77
2023-01-25T01:22:55.607Z,23.27
2023-01-25T01:25:25.447Z,21.77
2023-01-25T01:27:55.252Z,23.00
2023-01-25T01:30:24.862Z,22.37
2023-01-25T01:32:54.960Z,22.93
2023-01-25T01:35:24.816Z,23.12
2023-01-25T01:37:54.904Z,22.48
2023-01-25T01:40:25.008Z,23.55
2023-01-25T01:43:02.389Z,23.50
2023-01-25T01:45:53.989Z,23.03
2023-01-25T01:48:37.048Z,21.23
2023-01-25T01:51:19.932Z,22.22
2023-01-25T01:53:58.882Z,22.60
2023-01-25T01:56:34.155Z,23.57
2023-01-25T01:59:07.043Z,22.82
2023-01-25T02:01:37.343Z,22.97
2023-01-25T02:04:09.211Z,23.94
2023-01-25T02:06:48.441Z,24.20
2023-01-25T02:09:21.831Z,24.57
2023-01-25T02:11:53.598Z,24.23
2023-01-25T02:14:23.712Z,23.40
2023-01-25T02:16:53.544Z,25.23
2023-01-25T02:19:49.328Z,24.77
2023-01-25T02:22:23.089Z,23.87
2023-01-25T02:24:58.698Z,25.80
2023-01-25T02:27:28.491Z,25.35
2023-01-25T02:29:59.109Z,24.93
2023-01-25T02:32:28.880Z,26.77
2023-01-25T02:34:59.789Z,25.80
2023-01-25T02:37:29.921Z,24.23
2023-01-25T02:39:59.764Z,24.90
2023-01-25T02:42:33.165Z,24.73
2023-01-25T02:45:05.736Z,24.93
2023-01-25T02:47:35.840Z,26.55
2023-01-25T02:50:07.125Z,26.33
2023-01-25T02:52:36.977Z,25.93
2023-01-25T02:55:09.055Z,25.67
2023-01-25T02:57:40.878Z,25.47
2023-01-25T03:00:12.688Z,24.43
2023-01-25T03:02:42.573Z,25.03
2023-01-25T03:05:13.317Z,25.50
2023-01-25T03:07:43.162Z,26.33
2023-01-25T03:10:14.287Z,25.60
2023-01-25T03:12:46.328Z,26.07
2023-01-25T03:15:16.716Z,26.50
2023-01-25T03:17:46.270Z,24.75
2023-01-25T03:20:16.310Z,26.07
2023-01-25T03:22:46.218Z,26.67
2023-01-25T03:25:16.245Z,25.60
2023-01-25T03:27:47.743Z,25.70
2023-01-25T03:30:17.248Z,26.33
2023-01-25T03:32:47.011Z,27.30
2023-01-25T03:35:18.530Z,27.03
2023-01-25T03:37:48.572Z,28.10
2023-01-25T03:40:18.252Z,27.77
2023-01-25T03:42:49.777Z,27.47
2023-01-25T03:45:20.077Z,27.02
2023-01-25T03:47:50.178Z,27.33
2023-01-25T03:50:20.017Z,27.95
2023-01-25T03:52:51.471Z,26.67
2023-01-25T03:55:21.295Z,27.40
2023-01-25T03:57:51.628Z,27.48
2023-01-25T04:00:22.130Z,26.97
2023-01-25T04:02:52.024Z,28.03
2023-01-25T04:05:22.204Z,27.70
2023-01-25T04:07:51.967Z,27.83
2023-01-25T04:10:26.472Z,27.35
2023-01-25T04:12:56.599Z,29.37
2023-01-25T04:15:26.459Z,28.37
2023-01-25T04:17:57.058Z,27.60
2023-01-25T04:20:26.511Z,27.95
2023-01-25T04:22:56.343Z,26.95
2023-01-25T04:25:28.367Z,27.93
2023-01-25T04:28:00.075Z,29.47
2023-01-25T04:30:30.087Z,28.27
2023-01-25T04:33:05.803Z,29.33
2023-01-25T04:35:36.602Z,29.97
2023-01-25T04:38:08.592Z,30.03
2023-01-25T04:40:40.433Z,31.67
2023-01-25T04:43:10.543Z,30.63
2023-01-25T04:45:40.399Z,29.63
2023-01-25T04:48:13.613Z,30.70
2023-01-25T04:50:46.348Z,32.13
2023-01-25T04:53:18.449Z,32.55
2023-01-25T04:55:49.140Z,31.63
2023-01-25T04:58:19.497Z,30.83
2023-01-25T05:00:49.426Z,31.30
2023-01-25T05:03:19.663Z,30.95
2023-01-25T05:05:50.548Z,33.47
2023-01-25T05:08:22.221Z,32.15
2023-01-25T05:10:53.749Z,33.67
2023-01-25T05:13:43.557Z,30.65
2023-01-25T05:16:15.148Z,34.40
2023-01-25T05:18:48.732Z,33.15
2023-01-25T05:21:36.593Z,31.55
2023-01-25T05:24:08.326Z,30.90
2023-01-25T05:26:55.755Z,33.47
2023-01-25T05:29:25.511Z,32.67
2023-01-25T05:32:02.962Z,33.47
2023-01-25T05:34:34.213Z,34.80
2023-01-25T05:37:06.599Z,34.50
2023-01-25T05:39:37.138Z,34.00
2023-01-25T05:42:13.020Z,33.73
2023-01-25T05:44:45.342Z,36.30
2023-01-25T05:47:18.316Z,36.20
2023-01-25T05:49:48.401Z,37.67
2023-01-25T05:52:19.901Z,36.77
2023-01-25T05:54:50.432Z,36.97
2023-01-25T05:57:20.586Z,37.03
2023-01-25T05:59:50.647Z,37.90
2023-01-25T06:02:21.132Z,38.00
2023-01-25T06:04:51.008Z,36.17
2023-01-25T06:07:22.060Z,36.87
2023-01-25T06:09:53.142Z,37.47
2023-01-25T06:12:23.580Z,37.25
2023-01-25T06:14:53.737Z,37.30
2023-01-25T06:17:23.755Z,39.70
2023-01-25T06:20:00.894Z,37.07
2023-01-25T06:22:41.252Z,38.97
2023-01-25T06:25:11.259Z,36.73
2023-01-25T06:27:41.340Z,38.53
2023-01-25T06:30:13.557Z,38.92
2023-01-25T06:32:43.751Z,37.58
2023-01-25T06:35:13.507Z,38.50
2023-01-25T06:37:43.649Z,40.98
2023-01-25T06:40:16.031Z,55.88
2023-01-25T06:42:45.814Z,44.23
2023-01-25T06:45:16.051Z,40.20
2023-01-25T06:47:46.714Z,40.83
2023-01-25T06:50:16.458Z,41.30
2023-01-25T06:52:49.320Z,38.40
2023-01-25T06:55:19.163Z,40.67
2023-01-25T06:57:49.473Z,38.30
2023-01-25T07:00:19.504Z,38.73
2023-01-25T07:02:49.761Z,37.30
2023-01-25T07:05:19.616Z,39.70
2023-01-25T07:07:49.101Z,40.60
2023-01-25T07:10:18.979Z,40.50
2023-01-25T07:12:48.735Z,40.63
2023-01-25T07:15:18.580Z,42.17
2023-01-25T07:17:48.729Z,43.17
2023-01-25T07:20:18.744Z,43.78
2023-01-25T07:22:48.512Z,42.57
2023-01-25T07:25:18.125Z,40.33
2023-01-25T07:27:47.843Z,41.10
2023-01-25T07:30:19.776Z,40.65
2023-01-25T07:32:49.326Z,41.35
2023-01-25T07:35:18.871Z,39.88
2023-01-25T07:37:48.647Z,42.93
2023-01-25T07:40:18.274Z,41.60
2023-01-25T07:42:48.057Z,40.03
2023-01-25T07:45:20.029Z,40.37
2023-01-25T07:47:50.077Z,40.37
2023-01-25T07:50:19.942Z,40.40
2023-01-25T07:52:49.396Z,39.83
2023-01-25T07:55:19.171Z,40.55
2023-01-25T07:57:49.471Z,39.87
2023-01-25T08:00:19.840Z,40.07
2023-01-25T08:02:53.257Z,39.00
2023-01-25T08:05:23.169Z,40.67
2023-01-25T08:07:52.936Z,38.80
2023-01-25T08:10:22.780Z,38.70
2023-01-25T08:12:52.534Z,40.80
2023-01-25T08:15:22.629Z,41.05
2023-01-25T08:17:52.356Z,38.35
2023-01-25T08:20:22.554Z,41.47
2023-01-25T08:22:53.795Z,37.93
2023-01-25T08:25:23.879Z,39.55
2023-01-25T08:27:55.010Z,39.98
2023-01-25T08:30:24.526Z,38.40
2023-01-25T08:32:54.881Z,39.17
2023-01-25T08:35:24.651Z,38.23
2023-01-25T08:37:54.703Z,38.02
2023-01-25T08:40:25.949Z,36.70
2023-01-25T08:42:55.810Z,37.20
2023-01-25T08:45:25.416Z,39.17
2023-01-25T08:47:55.179Z,38.43
2023-01-25T08:50:24.670Z,37.60
2023-01-25T08:52:54.464Z,38.70
2023-01-25T08:55:24.563Z,39.88
2023-01-25T08:57:56.526Z,39.53
2023-01-25T09:00:26.204Z,37.73
2023-01-25T09:02:56.004Z,38.63
2023-01-25T09:05:25.880Z,39.88
2023-01-25T09:07:55.704Z,37.33
2023-01-25T09:10:25.202Z,37.87
2023-01-25T09:12:55.070Z,38.00
2023-01-25T09:15:25.006Z,37.40
2023-01-25T09:17:58.039Z,37.95
2023-01-25T09:20:28.716Z,39.05
2023-01-25T09:22:59.339Z,38.20
2023-01-25T09:25:29.116Z,39.60
2023-01-25T09:27:59.001Z,38.17
2023-01-25T09:30:44.813Z,38.23
2023-01-25T09:33:00.181Z,39.23
2023-01-25T09:35:31.057Z,40.48
2023-01-25T09:38:01.211Z,38.83
2023-01-25T09:40:34.398Z,37.47
2023-01-25T09:43:16.365Z,38.85
2023-01-25T09:45:46.843Z,38.53
2023-01-25T09:48:22.700Z,36.93
2023-01-25T09:51:09.928Z,37.80
2023-01-25T09:53:45.691Z,38.73
2023-01-25T09:56:24.525Z,41.02
2023-01-25T09:58:59.696Z,38.20
2023-01-25T10:01:57.578Z,39.57
2023-01-25T10:04:38.775Z,40.20
2023-01-25T10:07:17.469Z,40.80
2023-01-25T10:09:50.685Z,37.10
2023-01-25T10:12:24.038Z,37.87
2023-01-25T10:14:55.172Z,37.37
2023-01-25T10:17:39.779Z,39.77
2023-01-25T10:20:27.655Z,37.75
2023-01-25T10:23:00.773Z,38.08
2023-01-25T10:25:45.564Z,38.13
2023-01-25T10:28:20.904Z,38.10
2023-01-25T10:31:14.067Z,38.60
2023-01-25T10:33:46.137Z,38.23
2023-01-25T10:36:18.361Z,39.93
2023-01-25T10:38:53.666Z,40.13
2023-01-25T10:41:43.788Z,37.47
2023-01-25T10:44:25.396Z,37.08
2023-01-25T10:47:03.996Z,40.57
2023-01-25T10:49:45.591Z,39.30
2023-01-25T10:52:18.191Z,38.57
2023-01-25T10:54:51.949Z,39.03
2023-01-25T10:57:23.329Z,42.33
2023-01-25T10:59:53.860Z,39.50
2023-01-25T11:02:47.272Z,39.37
2023-01-25T11:05:29.070Z,38.33
2023-01-25T11:08:00.712Z,39.90
2023-01-25T11:10:35.272Z,41.10
2023-01-25T11:13:20.751Z,40.63
2023-01-25T11:16:04.112Z,39.92
2023-01-25T11:18:35.655Z,42.33
2023-01-25T11:21:15.229Z,43.30
2023-01-25T11:23:45.685Z,40.90
2023-01-25T11:26:20.622Z,41.95
2023-01-25T11:28:50.398Z,41.37
2023-01-25T11:31:23.860Z,42.83
2023-01-25T11:33:53.734Z,42.63
2023-01-25T11:36:38.112Z,42.17
2023-01-25T11:39:37.555Z,42.60
2023-01-25T11:42:45.810Z,42.93
2023-01-25T11:45:35.916Z,43.10
2023-01-25T11:48:15.577Z,42.80
2023-01-25T11:50:50.984Z,41.77
2023-01-25T11:53:46.395Z,41.45
2023-01-25T11:56:35.717Z,41.37
2023-01-25T11:59:24.759Z,40.33
2023-01-25T12:02:25.767Z,39.07
2023-01-25T12:05:21.659Z,38.10
2023-01-25T12:07:49.571Z,37.93
2023-01-25T12:10:42.858Z,41.47
2023-01-25T12:13:39.407Z,38.57
2023-01-25T12:16:35.705Z,43.83
2023-01-25T12:22:05.624Z,43.25
2023-01-25T12:25:05.697Z,42.43
2023-01-25T12:27:48.378Z,41.85
2023-01-25T12:30:23.681Z,45.87
2023-01-25T12:33:09.047Z,42.50
2023-01-25T12:35:57.369Z,44.67
2023-01-25T12:38:32.974Z,42.90
2023-01-25T12:41:32.574Z,45.53
2023-01-25T12:44:14.065Z,47.67
2023-01-25T12:47:14.747Z,48.63
2023-01-25T12:50:05.855Z,44.70
2023-01-25T12:52:38.371Z,44.03
2023-01-25T12:55:11.267Z,47.63
2023-01-25T12:57:46.606Z,46.37
2023-01-25T13:00:22.042Z,44.05
2023-01-25T13:03:09.630Z,43.80
2023-01-25T13:06:03.315Z,42.93
2023-01-25T13:08:38.862Z,43.77
2023-01-25T13:11:26.316Z,43.08
2023-01-25T13:14:15.277Z,46.30
2023-01-25T13:17:08.539Z,46.73
2023-01-25T13:19:26.803Z,47.63
2023-01-25T13:21:58.660Z,47.53
2023-01-25T13:24:30.725Z,46.28
2023-01-25T13:27:19.568Z,47.60
2023-01-25T13:30:00.604Z,47.77
2023-01-25T13:32:36.323Z,47.30
2023-01-25T13:35:10.563Z,48.65
2023-01-25T13:37:42.410Z,47.73
2023-01-25T13:40:34.363Z,47.13
2023-01-25T13:43:07.353Z,48.10
2023-01-25T13:45:39.783Z,47.23
2023-01-25T13:48:17.152Z,47.33
2023-01-25T13:50:50.047Z,45.17
2023-01-25T13:53:23.332Z,44.70
2023-01-25T13:55:56.073Z,46.70
2023-01-25T13:58:31.739Z,45.93
2023-01-25T14:01:08.032Z,46.88
2023-01-25T14:03:46.622Z,45.13
2023-01-25T14:06:25.583Z,45.63
2023-01-25T14:08:58.226Z,47.57
2023-01-25T14:11:31.041Z,46.97
2023-01-25T14:14:27.251Z,43.87
2023-01-25T14:19:39.992Z,46.28
2023-01-25T14:22:20.447Z,46.88
2023-01-25T14:25:08.084Z,46.13
2023-01-25T14:27:40.373Z,46.30
2023-01-25T14:30:23.034Z,48.90
2023-01-25T14:32:58.203Z,45.23
2023-01-25T14:35:54.783Z,46.68
2023-01-25T14:38:29.249Z,45.67
2023-01-25T14:41:16.879Z,49.40
2023-01-25T14:43:52.617Z,46.03
2023-01-25T14:46:31.374Z,47.67
2023-01-25T14:49:15.823Z,45.17
2023-01-25T14:51:48.870Z,47.13
2023-01-25T14:54:21.780Z,48.63
2023-01-25T14:56:54.375Z,50.37
2023-01-25T14:59:30.253Z,48.43
2023-01-25T15:02:03.194Z,44.25
2023-01-25T15:04:35.382Z,49.70
2023-01-25T15:07:16.682Z,48.33
2023-01-25T15:09:43.316Z,47.10
2023-01-25T15:12:31.377Z,47.05
2023-01-25T15:15:02.694Z,47.27
2023-01-25T15:17:47.352Z,48.27
2023-01-25T15:20:38.270Z,44.25
2023-01-25T15:23:11.114Z,46.43
2023-01-25T15:25:52.405Z,46.73
2023-01-25T15:28:23.415Z,46.27
2023-01-25T15:30:53.669Z,45.93
2023-01-25T15:33:26.693Z,48.83
2023-01-25T15:35:57.502Z,46.85
2023-01-25T15:38:27.624Z,48.05
2023-01-25T15:40:59.136Z,45.57
2023-01-25T15:43:29.005Z,46.20
2023-01-25T15:46:00.836Z,46.33
2023-01-25T15:48:36.933Z,45.60
2023-01-25T15:51:06.860Z,45.98
2023-01-25T15:53:36.476Z,47.15
2023-01-25T15:56:19.632Z,45.67
2023-01-25T15:58:52.591Z,46.63
2023-01-25T16:01:26.524Z,48.73
2023-01-25T16:03:57.911Z,46.83
2023-01-25T16:06:36.445Z,45.40
2023-01-25T16:09:18.642Z,46.93
2023-01-25T16:11:51.291Z,45.97
2023-01-25T16:14:22.911Z,46.33
2023-01-25T16:16:53.909Z,45.80
2023-01-25T16:19:24.875Z,48.53
2023-01-25T16:21:54.925Z,48.87
2023-01-25T16:24:24.596Z,46.90
2023-01-25T16:26:57.068Z,45.53
2023-01-25T16:29:27.436Z,47.40
2023-01-25T16:31:57.561Z,48.23
2023-01-25T16:34:27.470Z,48.48
2023-01-25T16:36:58.907Z,45.47
2023-01-25T16:39:28.690Z,43.43
2023-01-25T16:41:58.827Z,44.93
2023-01-25T16:44:28.619Z,42.37
2023-01-25T16:46:58.751Z,46.53
2023-01-25T16:49:30.466Z,45.07
2023-01-25T16:52:01.072Z,45.83
2023-01-25T16:54:31.053Z,43.53
2023-01-25T16:57:08.646Z,42.73
2023-01-25T16:59:33.778Z,44.63
2023-01-25T17:02:03.598Z,43.47
2023-01-25T17:04:33.392Z,44.83
2023-01-25T17:07:03.260Z,45.40
2023-01-25T17:09:34.114Z,45.10
2023-01-25T17:12:09.210Z,42.76
2023-01-25T17:14:38.815Z,42.20
2023-01-25T17:17:08.675Z,41.50
2023-01-25T17:19:38.145Z,41.85
2023-01-25T17:22:09.951Z,41.68
2023-01-25T17:24:39.715Z,42.87
2023-01-25T17:27:09.215Z,42.55
2023-01-25T17:29:39.075Z,42.13
2023-01-25T17:32:11.232Z,44.38
2023-01-25T17:34:41.021Z,46.30
2023-01-25T17:37:10.793Z,45.33
2023-01-25T17:39:40.657Z,44.90
2023-01-25T17:42:13.169Z,42.88
2023-01-25T17:44:43.077Z,42.13
2023-01-25T17:47:13.612Z,39.50
2023-01-25T17:49:43.410Z,41.73
2023-01-25T17:52:13.197Z,41.00
2023-01-25T17:54:42.978Z,43.07
2023-01-25T17:57:12.845Z,42.93
2023-01-25T17:59:42.640Z,43.37
2023-01-25T18:02:12.619Z,42.13
2023-01-25T18:04:42.768Z,41.40
2023-01-25T18:07:12.531Z,40.10
2023-01-25T18:09:42.802Z,41.88
2023-01-25T18:12:12.352Z,39.18
2023-01-25T18:14:42.193Z,39.70
2023-01-25T18:17:12.621Z,39.90
2023-01-25T18:19:44.462Z,39.42
2023-01-25T18:22:14.724Z,40.35
2023-01-25T18:24:45.214Z,36.87
2023-01-25T18:27:25.776Z,38.60
2023-01-25T18:30:01.987Z,38.35
2023-01-25T18:32:33.901Z,37.73
2023-01-25T18:35:04.795Z,36.47
2023-01-25T18:37:36.483Z,37.88
2023-01-25T18:40:09.212Z,39.25
2023-01-25T18:42:39.005Z,36.83
2023-01-25T18:45:10.457Z,35.70
2023-01-25T18:47:40.573Z,35.73
2023-01-25T18:50:14.610Z,38.92
2023-01-25T18:52:44.726Z,36.80
2023-01-25T18:55:15.130Z,38.38
2023-01-25T18:57:44.928Z,38.90
2023-01-25T19:00:16.455Z,43.25
2023-01-25T19:02:46.353Z,44.70
2023-01-25T19:05:17.550Z,45.25
2023-01-25T19:07:47.637Z,42.20
2023-01-25T19:10:18.500Z,43.98
2023-01-25T19:12:48.301Z,44.83
2023-01-25T19:15:17.875Z,46.20
2023-01-25T19:17:47.356Z,45.45
2023-01-25T19:20:17.469Z,48.10
2023-01-25T19:22:47.830Z,48.03
2023-01-25T19:25:18.022Z,51.83
2023-01-25T19:27:47.875Z,46.17
2023-01-25T19:30:17.855Z,45.53
2023-01-25T19:32:47.738Z,45.83
2023-01-25T19:35:17.740Z,48.40
2023-01-25T19:37:47.914Z,44.23
2023-01-25T19:40:18.833Z,44.27
2023-01-25T19:42:48.614Z,43.20
2023-01-25T19:45:18.069Z,44.73
2023-01-25T19:47:47.869Z,46.23
2023-01-25T19:50:17.898Z,45.05
2023-01-25T19:52:47.471Z,46.10
2023-01-25T19:55:17.295Z,46.10
2023-01-25T19:57:47.855Z,47.23
2023-01-25T20:00:17.769Z,48.60
2023-01-25T20:02:47.861Z,49.23
2023-01-25T20:05:17.729Z,48.68
2023-01-25T20:07:47.577Z,47.53
2023-01-25T20:10:17.868Z,48.83
2023-01-25T20:12:47.760Z,49.40
2023-01-25T20:15:17.677Z,49.33
2023-01-25T20:17:47.777Z,49.88
2023-01-25T20:20:17.865Z,51.77
2023-01-25T20:22:49.429Z,53.20
2023-01-25T20:25:19.269Z,52.80
2023-01-25T20:27:49.056Z,49.13
2023-01-25T20:30:19.008Z,49.67
2023-01-25T20:32:48.844Z,46.43
2023-01-25T20:35:19.003Z,53.23
2023-01-25T20:37:49.459Z,53.33
2023-01-25T20:40:19.220Z,48.75
2023-01-25T20:42:49.012Z,51.07
2023-01-25T20:45:18.633Z,50.27
2023-01-25T20:47:48.433Z,51.03
2023-01-25T20:50:18.360Z,51.17
2023-01-25T20:52:48.254Z,54.97
2023-01-25T20:55:17.975Z,49.47
2023-01-25T20:57:47.763Z,50.80
2023-01-25T21:00:18.389Z,51.67
2023-01-25T21:02:48.184Z,52.90
2023-01-25T21:05:18.016Z,53.45
2023-01-25T21:07:47.914Z,53.47
2023-01-25T21:10:18.186Z,50.92
2023-01-25T21:12:47.961Z,50.23
2023-01-25T21:15:17.956Z,52.93
2023-01-25T21:17:52.595Z,54.03
2023-01-25T21:20:22.251Z,53.83
2023-01-25T21:22:52.230Z,54.60
2023-01-25T21:25:22.002Z,54.97
2023-01-25T21:27:53.306Z,54.57
2023-01-25T21:30:23.364Z,51.30
2023-01-25T21:32:53.147Z,49.53
2023-01-25T21:35:22.935Z,55.40
2023-01-25T21:37:53.429Z,50.07
2023-01-25T21:40:23.010Z,55.30
2023-01-25T21:42:52.796Z,47.67
2023-01-25T21:45:40.397Z,53.02
2023-01-25T21:48:11.353Z,50.65
2023-01-25T21:50:58.753Z,51.63
2023-01-25T21:53:28.567Z,54.03
2023-01-25T21:55:58.643Z,49.95
2023-01-25T21:58:28.100Z,52.85
2023-01-25T22:01:02.130Z,51.77
2023-01-25T22:03:31.878Z,48.93
2023-01-25T22:06:01.968Z,53.52
2023-01-25T22:08:32.012Z,51.00
2023-01-25T22:11:07.171Z,50.30
2023-01-25T22:13:36.674Z,53.50
2023-01-25T22:16:08.975Z,50.52
2023-01-25T22:18:41.512Z,50.17
2023-01-25T22:21:19.801Z,50.93
2023-01-25T22:23:50.317Z,48.93
2023-01-25T22:26:22.416Z,50.53
2023-01-25T22:28:57.716Z,49.83
2023-01-25T22:31:30.463Z,51.02
2023-01-25T22:34:01.232Z,49.80
2023-01-25T22:36:31.841Z,48.20
2023-01-25T22:39:01.677Z,46.13
2023-01-25T22:41:34.179Z,49.00
2023-01-25T22:44:05.686Z,48.87
2023-01-25T22:46:35.549Z,50.67
2023-01-25T22:49:05.307Z,50.10
2023-01-25T22:51:35.115Z,48.67
2023-01-25T22:54:06.460Z,51.10
2023-01-25T22:56:36.324Z,49.03
2023-01-25T22:59:07.948Z,48.17
2023-01-25T23:01:37.710Z,51.73
2023-01-25T23:04:10.091Z,47.88
2023-01-25T23:06:39.962Z,50.10
2023-01-25T23:09:11.112Z,48.63
2023-01-25T23:11:40.923Z,49.90
2023-01-25T23:14:31.326Z,49.04
2023-01-25T23:17:18.862Z,47.60
2023-01-25T23:19:48.907Z,45.83
2023-01-25T23:22:18.662Z,51.00
2023-01-25T23:24:48.449Z,47.97
2023-01-25T23:27:18.224Z,48.93
2023-01-25T23:29:49.049Z,49.50
2023-01-25T23:32:19.364Z,50.57
2023-01-25T23:34:50.919Z,48.87
2023-01-25T23:37:22.039Z,49.53
2023-01-25T23:39:52.367Z,47.78
2023-01-25T23:42:21.988Z,46.27
2023-01-25T23:44:51.933Z,45.77
2023-01-25T23:47:21.717Z,47.00
2023-01-25T23:49:51.485Z,43.73
2023-01-25T23:52:21.341Z,46.27
2023-01-25T23:54:51.095Z,46.60
2023-01-25T23:57:21.529Z,44.93
2023-01-25T23:59:51.659Z,45.38
